Friday, April 20, 2018, 4:05 PM EDT
Back to Local

KCEF, Chicopee Falls / Westover Air Force Base

Location: Chicopee, MA, United States Lat: 42.2
Local Time: 4:05 PM EDT (20:05 GMT) Lon: -72.533
Time Zone: US/Eastern Elev: 246 ft

Show me the last for .
Show Decoded

2018-04-20 14:56 METAR KCEF 201856Z 33011G21KT 10SM SCT055 11/M04 A3009 RMK SLP197 T01081037 =
2018-04-20 13:56 METAR KCEF 201756Z 02011G20KT 10SM BKN050 09/M04 A3009 RMK AO2A PK WND 34026/17
                 SLP197 T00931040 10103 20021 52007 =
2018-04-20 12:56 METAR KCEF 201656Z 34010G17KT 10SM SCT050 BKN180 09/M04 A3008 RMK AO2A PK WND
                 33026/1558 SLP194 T00861042 =
2018-04-20 11:56 METAR KCEF 201556Z 33015G20KT 10SM BKN047 BKN180 07/M04 A3008 RMK AO2A SLP194
                 T00731045 =
2018-04-20 10:56 METAR KCEF 201456Z 35014G20KT 10SM BKN043 BKN120 06/M05 A3007 RMK AO2A SLP190
                 T00641050 52015 =
2018-04-20 09:56 METAR KCEF 201356Z 33016G22KT 10SM SCT041 BKN100 06/M05 A3005 RMK AO2A SCT V BKN
                 SLP184 T00571047 =
2018-04-20 08:56 METAR KCEF 201256Z 35013G16KT 10SM FEW041 SCT100 05/M05 A3004 RMK AO2A SLP180
                 T00451048 =
2018-04-20 07:56 METAR KCEF 201156Z 32005KT 10SM FEW034 FEW100 02/M04 A3003 RMK AO2A SLP177 70011
                 T00191042 10019 21015 52025 =
2018-04-20 06:56 METAR KCEF 201056Z 30004KT 10SM FEW037 BKN100 00/M04 A3001 RMK AO2A SLP170
                 T00011044 =
2018-04-20 05:56 METAR KCEF 200956Z AUTO 32004KT 10SM FEW034 M01/M05 A2998 RMK AO2 SLP160
                 T10071051 =
2018-04-20 04:56 METAR KCEF 200856Z AUTO 29004KT 10SM FEW033 M01/M05 A2995 RMK AO2 SLP150
                 T10101051 53014 =
2018-04-20 03:56 METAR KCEF 200756Z AUTO 32003KT 10SM CLR 00/M04 A2993 RMK AO2 SLP143 T00001044 =
2018-04-20 02:56 METAR KCEF 200656Z AUTO 31007KT 10SM CLR 01/M04 A2991 RMK AO2 SLP136 T00061039 =
2018-04-20 01:56 METAR KCEF 200556Z AUTO 31009KT 10SM FEW045 SCT055 02/M03 A2991 RMK AO2
                 UPB0456E0457 SLP136 P0000 60000 T00171032 10046 20017 52012 =
2018-04-20 00:58 METAR KCEF 200458Z AUTO 29010KT 10SM FEW028 03/M03 A2991 RMK AO2 UPB56E57 SLP136
                 =
2018-04-20 00:57 METAR KCEF 200457Z AUTO 29009KT 10SM -UP FEW028 03/M03 A2991 RMK AO2 UPB56
                 SLP136 =
2018-04-20 00:56 METAR KCEF 200456Z AUTO 29010KT 10SM CLR 03/M03 A2991 RMK AO2
                 UPB13E23UPB28E44UPB47E49UPB52 SLP136 P0000 T00271030 400701003 =
2018-04-20 00:49 METAR KCEF 200449Z AUTO 31011KT 10SM CLR 03/M03 A2990 RMK AO2
                 UPB13E23UPB28E44UPB47 SLP133 =
2018-04-20 00:47 METAR KCEF 200447Z AUTO 31011KT 10SM -UP FEW016 03/M03 A2990 RMK AO2
                 UPB13E23UPB28E44UPB47 SLP133 =
2018-04-20 00:44 METAR KCEF 200444Z AUTO 30012KT 10SM FEW016 03/M03 A2990 RMK AO2
                 UPB13E23UPB28E44 SLP133 =
2018-04-20 00:28 METAR KCEF 200428Z AUTO 28010KT 10SM -UP FEW016 03/M02 A2990 RMK AO2
                 UPB13E23UPB28 SLP133 =
2018-04-20 00:23 METAR KCEF 200423Z AUTO 31011G14KT 10SM FEW017 03/M02 A2990 RMK AO2 UPB13E23
                 SLP133 =
2018-04-20 00:13 METAR KCEF 200413Z AUTO 30008KT 10SM -UP FEW017 SCT029 03/M02 A2989 RMK AO2
                 UPB13 SLP130 =
2018-04-19 23:56 METAR KCEF 200356Z AUTO 29006KT 10SM FEW030 BKN060 03/M02 A2989 RMK AO2 SLP130
                 T00281019 =
2018-04-19 22:56 METAR KCEF 200256Z 31006KT 10SM FEW020 SCT070 BKN090 03/M02 A2987 RMK AO2A
                 SLP123 P0000 60000 T00311020 52023 =
2018-04-19 22:18 METAR KCEF 200218Z 30011KT 10SM FEW018 BKN060 BKN110 03/M03 A2987 RMK AO2A
                 SLP123 =
2018-04-19 22:13 METAR KCEF 200213Z 31011KT 10SM -RA FEW018 BKN060 BKN110 03/M02 A2987 RMK AO2A
                 SLP123 =
2018-04-19 21:56 METAR KCEF 200156Z 32008KT 10SM FEW025 SCT060 BKN110 04/M02 A2986 RMK AO2A
                 SLP120 P0000 T00351023 =
2018-04-19 20:56 METAR KCEF 200056Z 31010KT 10SM -RA SCT020 BKN037 BKN100 04/M01 A2984 RMK AO2A
                 SLP113 P0000 T00361008 =
2018-04-19 19:56 METAR KCEF 192356Z 32012G21KT 10SM FEW035 SCT070 BKN100 05/M02 A2981 RMK AO2A
                 SLP103 60000 T00461018 10070 20046 52029 =
2018-04-19 18:56 METAR KCEF 192256Z 30016G21KT 10SM FEW031 SCT065 BKN080 05/M01 A2977 RMK AO2A
                 SLP089 P0000 T00501012 =
2018-04-19 18:10 METAR KCEF 192210Z 31012KT 10SM FEW017 SCT026 BKN031 05/01 A2975 RMK AO2A SLP082
                 =
2018-04-19 17:56 METAR KCEF 192156Z 31010G24KT 10SM -RA FEW017 SCT026 BKN031 05/02 A2974 RMK AO2A
                 SLP079 P0000 T00540015 =
2018-04-19 17:47 METAR KCEF 192147Z 31015KT 5SM -RA SCT017 BKN031 BKN043 07/01 A2973 RMK AO2A
                 SLP075 =
2018-04-19 16:56 METAR KCEF 192056Z 31011KT 10SM -RA SCT017 BKN025 BKN065 06/02 A2972 RMK AO2A
                 SLP072 60000 T00620015 51015 =

Support USWX by starting your Amazon purchase here.